sensor_id;sensor_type;location;lat;lon;timestamp;P1;durP1;ratioP1;P2;durP2;ratioP2
40555;SDS011;26250;45.422;11.100;2023-06-04T17:48:25;13.05;;;11.73;;
40555;SDS011;26250;45.422;11.100;2023-06-04T17:50:52;12.68;;;11.27;;
40555;SDS011;26250;45.422;11.100;2023-06-04T17:53:19;14.32;;;11.63;;
40555;SDS011;26250;45.422;11.100;2023-06-04T17:55:46;10.27;;;8.20;;
40555;SDS011;26250;45.422;11.100;2023-06-04T17:58:13;11.73;;;6.28;;
40555;SDS011;26250;45.422;11.100;2023-06-04T18:00:41;7.75;;;4.80;;
40555;SDS011;26250;45.422;11.100;2023-06-04T18:03:10;5.05;;;4.65;;
40555;SDS011;26250;45.422;11.100;2023-06-04T18:05:37;7.30;;;3.85;;
40555;SDS011;26250;45.422;11.100;2023-06-04T18:08:11;3.25;;;2.85;;
40555;SDS011;26250;45.422;11.100;2023-06-04T18:10:41;3.45;;;3.25;;
40555;SDS011;26250;45.422;11.100;2023-06-04T18:13:08;5.30;;;2.72;;
40555;SDS011;26250;45.422;11.100;2023-06-04T18:15:35;3.83;;;2.50;;
40555;SDS011;26250;45.422;11.100;2023-06-04T18:18:02;2.88;;;2.58;;
40555;SDS011;26250;45.422;11.100;2023-06-04T18:20:30;6.05;;;2.78;;
40555;SDS011;26250;45.422;11.100;2023-06-04T18:22:57;9.07;;;3.47;;
40555;SDS011;26250;45.422;11.100;2023-06-04T18:25:24;3.38;;;2.90;;
40555;SDS011;26250;45.422;11.100;2023-06-04T18:27:51;51.08;;;4.28;;
40555;SDS011;26250;45.422;11.100;2023-06-04T18:30:18;7.30;;;3.00;;
40555;SDS011;26250;45.422;11.100;2023-06-04T18:32:45;3.22;;;2.75;;
40555;SDS011;26250;45.422;11.100;2023-06-04T18:35:14;6.07;;;3.25;;
40555;SDS011;26250;45.422;11.100;2023-06-04T18:37:41;3.15;;;2.78;;
40555;SDS011;26250;45.422;11.100;2023-06-04T18:40:09;2.85;;;2.65;;
40555;SDS011;26250;45.422;11.100;2023-06-04T18:42:39;5.32;;;2.40;;
40555;SDS011;26250;45.422;11.100;2023-06-04T18:45:06;4.53;;;3.13;;
40555;SDS011;26250;45.422;11.100;2023-06-04T18:47:38;3.22;;;2.72;;
40555;SDS011;26250;45.422;11.100;2023-06-04T18:50:06;5.47;;;3.15;;
40555;SDS011;26250;45.422;11.100;2023-06-04T18:52:33;2.97;;;2.70;;
40555;SDS011;26250;45.422;11.100;2023-06-04T18:55:05;4.60;;;2.63;;
40555;SDS011;26250;45.422;11.100;2023-06-04T18:57:35;4.93;;;3.17;;
40555;SDS011;26250;45.422;11.100;2023-06-04T19:00:03;4.20;;;3.75;;
40555;SDS011;26250;45.422;11.100;2023-06-04T19:02:37;4.65;;;3.83;;
40555;SDS011;26250;45.422;11.100;2023-06-04T19:05:05;3.47;;;3.03;;
40555;SDS011;26250;45.422;11.100;2023-06-04T19:07:36;3.17;;;2.90;;
40555;SDS011;26250;45.422;11.100;2023-06-04T19:10:03;6.68;;;3.35;;
40555;SDS011;26250;45.422;11.100;2023-06-04T19:12:30;3.63;;;3.33;;
40555;SDS011;26250;45.422;11.100;2023-06-04T19:14:59;4.32;;;3.75;;
40555;SDS011;26250;45.422;11.100;2023-06-04T19:17:26;10.43;;;4.03;;
40555;SDS011;26250;45.422;11.100;2023-06-04T19:19:55;5.07;;;3.97;;
40555;SDS011;26250;45.422;11.100;2023-06-04T19:22:23;3.55;;;3.25;;
40555;SDS011;26250;45.422;11.100;2023-06-04T19:24:50;7.57;;;4.57;;
40555;SDS011;26250;45.422;11.100;2023-06-04T19:27:17;6.43;;;4.00;;
40555;SDS011;26250;45.422;11.100;2023-06-04T19:29:45;6.20;;;4.20;;
40555;SDS011;26250;45.422;11.100;2023-06-04T19:32:12;5.82;;;3.92;;
40555;SDS011;26250;45.422;11.100;2023-06-04T19:34:39;4.85;;;4.13;;
40555;SDS011;26250;45.422;11.100;2023-06-04T19:37:08;8.88;;;4.38;;
40555;SDS011;26250;45.422;11.100;2023-06-04T19:39:35;4.15;;;3.72;;
40555;SDS011;26250;45.422;11.100;2023-06-04T19:42:01;7.72;;;4.20;;
40555;SDS011;26250;45.422;11.100;2023-06-04T19:44:28;5.68;;;4.63;;
40555;SDS011;26250;45.422;11.100;2023-06-04T19:46:55;9.10;;;5.30;;
40555;SDS011;26250;45.422;11.100;2023-06-04T19:49:22;4.32;;;3.97;;
40555;SDS011;26250;45.422;11.100;2023-06-04T19:51:49;9.60;;;4.50;;
40555;SDS011;26250;45.422;11.100;2023-06-04T19:54:16;9.48;;;4.95;;
40555;SDS011;26250;45.422;11.100;2023-06-04T19:56:46;6.10;;;4.78;;
40555;SDS011;26250;45.422;11.100;2023-06-04T19:59:13;8.02;;;4.47;;
40555;SDS011;26250;45.422;11.100;2023-06-04T20:01:40;6.93;;;4.95;;
40555;SDS011;26250;45.422;11.100;2023-06-04T20:04:09;7.07;;;4.57;;
40555;SDS011;26250;45.422;11.100;2023-06-04T20:06:37;4.78;;;4.15;;
40555;SDS011;26250;45.422;11.100;2023-06-04T20:09:04;8.00;;;5.60;;
40555;SDS011;26250;45.422;11.100;2023-06-04T20:11:32;3.90;;;3.60;;
40555;SDS011;26250;45.422;11.100;2023-06-04T20:13:59;7.57;;;5.40;;
40555;SDS011;26250;45.422;11.100;2023-06-04T20:16:26;8.07;;;4.95;;
40555;SDS011;26250;45.422;11.100;2023-06-04T20:18:54;8.70;;;4.40;;
40555;SDS011;26250;45.422;11.100;2023-06-04T20:21:23;6.57;;;4.55;;
